sensor_id;sensor_type;location;lat;lon;timestamp;temperature;humidity
28189;DHT22;15471;51.166;4.470;2022-11-03T00:01:12;13.10;99.90
28189;DHT22;15471;51.166;4.470;2022-11-03T00:03:38;13.10;99.90
28189;DHT22;15471;51.166;4.470;2022-11-03T00:06:05;13.10;99.90
28189;DHT22;15471;51.166;4.470;2022-11-03T00:08:37;13.10;99.90
28189;DHT22;15471;51.166;4.470;2022-11-03T00:13:30;13.10;99.90
28189;DHT22;15471;51.166;4.470;2022-11-03T00:15:56;13.10;99.90
28189;DHT22;15471;51.166;4.470;2022-11-03T00:18:22;13.10;99.90
28189;DHT22;15471;51.166;4.470;2022-11-03T00:21:07;13.10;99.90
28189;DHT22;15471;51.166;4.470;2022-11-03T00:23:37;13.10;99.90
28189;DHT22;15471;51.166;4.470;2022-11-03T00:26:09;13.10;99.90
28189;DHT22;15471;51.166;4.470;2022-11-03T00:28:36;13.10;99.90
28189;DHT22;15471;51.166;4.470;2022-11-03T00:31:26;13.10;99.90
28189;DHT22;15471;51.166;4.470;2022-11-03T00:33:52;13.00;99.90
28189;DHT22;15471;51.166;4.470;2022-11-03T00:36:23;13.00;99.90
28189;DHT22;15471;51.166;4.470;2022-11-03T00:38:50;13.10;99.90
28189;DHT22;15471;51.166;4.470;2022-11-03T00:41:17;13.00;99.90
28189;DHT22;15471;51.166;4.470;2022-11-03T00:43:45;13.10;99.90
28189;DHT22;15471;51.166;4.470;2022-11-03T00:46:12;13.00;99.90
28189;DHT22;15471;51.166;4.470;2022-11-03T00:48:38;13.10;99.90
28189;DHT22;15471;51.166;4.470;2022-11-03T00:53:43;13.10;99.90
28189;DHT22;15471;51.166;4.470;2022-11-03T00:56:15;13.10;99.90
28189;DHT22;15471;51.166;4.470;2022-11-03T00:58:43;13.10;99.90
28189;DHT22;15471;51.166;4.470;2022-11-03T01:01:18;13.00;99.90
28189;DHT22;15471;51.166;4.470;2022-11-03T01:03:46;13.00;99.90
28189;DHT22;15471;51.166;4.470;2022-11-03T01:06:33;13.00;99.90
28189;DHT22;15471;51.166;4.470;2022-11-03T01:09:19;13.00;99.90
28189;DHT22;15471;51.166;4.470;2022-11-03T01:14:42;12.90;99.90
28189;DHT22;15471;51.166;4.470;2022-11-03T01:17:14;13.00;99.90
28189;DHT22;15471;51.166;4.470;2022-11-03T01:19:40;13.00;99.90
28189;DHT22;15471;51.166;4.470;2022-11-03T01:22:07;12.90;99.90
28189;DHT22;15471;51.166;4.470;2022-11-03T01:24:36;12.90;99.90
28189;DHT22;15471;51.166;4.470;2022-11-03T01:27:02;12.90;99.90
28189;DHT22;15471;51.166;4.470;2022-11-03T01:29:28;12.90;99.90
28189;DHT22;15471;51.166;4.470;2022-11-03T01:31:54;12.90;99.90
28189;DHT22;15471;51.166;4.470;2022-11-03T01:34:20;12.90;99.90
28189;DHT22;15471;51.166;4.470;2022-11-03T01:36:47;12.90;99.90
28189;DHT22;15471;51.166;4.470;2022-11-03T01:39:16;12.90;99.90
28189;DHT22;15471;51.166;4.470;2022-11-03T01:41:45;12.90;99.90
28189;DHT22;15471;51.166;4.470;2022-11-03T01:47:05;12.90;99.90
28189;DHT22;15471;51.166;4.470;2022-11-03T01:49:44;13.00;99.90
28189;DHT22;15471;51.166;4.470;2022-11-03T01:54:54;12.90;99.90
28189;DHT22;15471;51.166;4.470;2022-11-03T01:57:28;13.00;99.90
28189;DHT22;15471;51.166;4.470;2022-11-03T01:59:56;12.90;99.90
28189;DHT22;15471;51.166;4.470;2022-11-03T02:02:25;12.90;99.90
28189;DHT22;15471;51.166;4.470;2022-11-03T02:04:53;12.90;99.90
28189;DHT22;15471;51.166;4.470;2022-11-03T02:07:54;12.90;99.90
28189;DHT22;15471;51.166;4.470;2022-11-03T02:10:23;12.90;99.90
28189;DHT22;15471;51.166;4.470;2022-11-03T02:12:49;13.00;99.90
28189;DHT22;15471;51.166;4.470;2022-11-03T02:15:18;13.00;99.90
28189;DHT22;15471;51.166;4.470;2022-11-03T02:17:47;13.00;99.90
28189;DHT22;15471;51.166;4.470;2022-11-03T02:20:23;13.00;99.90
28189;DHT22;15471;51.166;4.470;2022-11-03T02:25:47;13.00;99.90
28189;DHT22;15471;51.166;4.470;2022-11-03T02:28:34;13.00;99.90
28189;DHT22;15471;51.166;4.470;2022-11-03T02:33:52;13.00;99.90
28189;DHT22;15471;51.166;4.470;2022-11-03T02:36:30;13.00;99.90
28189;DHT22;15471;51.166;4.470;2022-11-03T02:39:02;13.00;99.90
28189;DHT22;15471;51.166;4.470;2022-11-03T02:41:33;13.00;99.90
28189;DHT22;15471;51.166;4.470;2022-11-03T02:44:00;13.00;99.90
28189;DHT22;15471;51.166;4.470;2022-11-03T02:46:30;13.00;99.90
28189;DHT22;15471;51.166;4.470;2022-11-03T02:48:57;13.00;99.90
28189;DHT22;15471;51.166;4.470;2022-11-03T02:51:23;13.00;99.90
28189;DHT22;15471;51.166;4.470;2022-11-03T02:56:48;12.90;99.90
28189;DHT22;15471;51.166;4.470;2022-11-03T02:59:18;12.90;99.90
28189;DHT22;15471;51.166;4.470;2022-11-03T03:01:54;13.00;99.90
28189;DHT22;15471;51.166;4.470;2022-11-03T03:04:46;13.00;99.90
28189;DHT22;15471;51.166;4.470;2022-11-03T03:07:23;13.00;99.90
28189;DHT22;15471;51.166;4.470;2022-11-03T03:10:12;13.00;99.90
28189;DHT22;15471;51.166;4.470;2022-11-03T03:12:59;13.00;99.90
28189;DHT22;15471;51.166;4.470;2022-11-03T03:18:25;13.00;99.90
28189;DHT22;15471;51.166;4.470;2022-11-03T03:21:14;13.00;99.90
28189;DHT22;15471;51.166;4.470;2022-11-03T03:23:46;13.00;99.90
28189;DHT22;15471;51.166;4.470;2022-11-03T03:26:34;13.00;99.90
28189;DHT22;15471;51.166;4.470;2022-11-03T03:29:13;13.00;99.90
28189;DHT22;15471;51.166;4.470;2022-11-03T03:31:42;13.00;99.90
28189;DHT22;15471;51.166;4.470;2022-11-03T03:34:13;13.00;99.90
28189;DHT22;15471;51.166;4.470;2022-11-03T03:36:43;13.00;99.90
28189;DHT22;15471;51.166;4.470;2022-11-03T03:39:12;13.00;99.90
28189;DHT22;15471;51.166;4.470;2022-11-03T03:41:40;13.00;99.90
28189;DHT22;15471;51.166;4.470;2022-11-03T03:44:07;13.00;99.90
28189;DHT22;15471;51.166;4.470;2022-11-03T03:46:42;13.00;99.90
28189;DHT22;15471;51.166;4.470;2022-11-03T03:49:09;13.10;99.90
28189;DHT22;15471;51.166;4.470;2022-11-03T03:51:35;13.10;99.90
28189;DHT22;15471;51.166;4.470;2022-11-03T03:54:02;13.20;99.90
28189;DHT22;15471;51.166;4.470;2022-11-03T03:56:47;13.20;99.90
28189;DHT22;15471;51.166;4.470;2022-11-03T03:59:17;13.20;99.90
28189;DHT22;15471;51.166;4.470;2022-11-03T04:01:43;13.10;99.90
28189;DHT22;15471;51.166;4.470;2022-11-03T04:04:08;13.10;99.90
28189;DHT22;15471;51.166;4.470;2022-11-03T04:06:35;13.20;99.90
28189;DHT22;15471;51.166;4.470;2022-11-03T04:09:01;13.10;99.90
28189;DHT22;15471;51.166;4.470;2022-11-03T04:11:27;13.10;99.90
28189;DHT22;15471;51.166;4.470;2022-11-03T04:14:11;13.20;99.90
28189;DHT22;15471;51.166;4.470;2022-11-03T04:16:56;13.20;99.90
28189;DHT22;15471;51.166;4.470;2022-11-03T04:19:40;13.20;99.90
28189;DHT22;15471;51.166;4.470;2022-11-03T04:22:30;13.30;99.90
28189;DHT22;15471;51.166;4.470;2022-11-03T04:24:57;13.30;99.90
28189;DHT22;15471;51.166;4.470;2022-11-03T04:29:59;13.30;99.90
28189;DHT22;15471;51.166;4.470;2022-11-03T04:32:28;13.30;99.90
28189;DHT22;15471;51.166;4.470;2022-11-03T04:34:54;13.30;99.90
28189;DHT22;15471;51.166;4.470;2022-11-03T04:37:20;13.30;99.90
28189;DHT22;15471;51.166;4.470;2022-11-03T04:39:46;13.20;99.90
28189;DHT22;15471;51.166;4.470;2022-11-03T04:42:20;13.20;99.90
28189;DHT22;15471;51.166;4.470;2022-11-03T04:44:47;13.20;99.90
28189;DHT22;15471;51.166;4.470;2022-11-03T04:47:16;13.20;99.90
28189;DHT22;15471;51.166;4.470;2022-11-03T04:49:43;13.10;99.90
28189;DHT22;15471;51.166;4.470;2022-11-03T04:52:18;13.10;99.90
28189;DHT22;15471;51.166;4.470;2022-11-03T04:54:46;13.10;99.90
28189;DHT22;15471;51.166;4.470;2022-11-03T04:57:13;13.10;99.90
28189;DHT22;15471;51.166;4.470;2022-11-03T04:59:42;13.10;99.90
28189;DHT22;15471;51.166;4.470;2022-11-03T05:02:12;13.10;99.90
28189;DHT22;15471;51.166;4.470;2022-11-03T05:04:39;13.10;99.90
28189;DHT22;15471;51.166;4.470;2022-11-03T05:09:49;13.00;99.90
28189;DHT22;15471;51.166;4.470;2022-11-03T05:12:16;13.00;99.90
28189;DHT22;15471;51.166;4.470;2022-11-03T05:14:43;13.10;99.90
28189;DHT22;15471;51.166;4.470;2022-11-03T05:17:24;13.00;99.90
28189;DHT22;15471;51.166;4.470;2022-11-03T05:19:56;13.00;99.90
28189;DHT22;15471;51.166;4.470;2022-11-03T05:22:23;13.00;99.90
28189;DHT22;15471;51.166;4.470;2022-11-03T05:24:59;13.00;99.90
28189;DHT22;15471;51.166;4.470;2022-11-03T05:27:26;13.00;99.90
28189;DHT22;15471;51.166;4.470;2022-11-03T05:29:53;13.00;99.90
28189;DHT22;15471;51.166;4.470;2022-11-03T05:32:23;13.10;99.90
28189;DHT22;15471;51.166;4.470;2022-11-03T05:34:51;13.10;99.90
28189;DHT22;15471;51.166;4.470;2022-11-03T05:37:31;13.00;99.90
28189;DHT22;15471;51.166;4.470;2022-11-03T05:40:14;13.00;99.90
28189;DHT22;15471;51.166;4.470;2022-11-03T05:42:43;13.00;99.90
28189;DHT22;15471;51.166;4.470;2022-11-03T05:47:45;13.00;99.90
28189;DHT22;15471;51.166;4.470;2022-11-03T05:52:48;13.00;99.90
28189;DHT22;15471;51.166;4.470;2022-11-03T05:55:35;12.90;99.90
28189;DHT22;15471;51.166;4.470;2022-11-03T06:00:45;12.90;99.90
28189;DHT22;15471;51.166;4.470;2022-11-03T06:03:23;12.90;99.90
28189;DHT22;15471;51.166;4.470;2022-11-03T06:05:50;13.00;99.90
28189;DHT22;15471;51.166;4.470;2022-11-03T06:08:22;12.90;99.90
28189;DHT22;15471;51.166;4.470;2022-11-03T06:10:51;12.90;99.90
28189;DHT22;15471;51.166;4.470;2022-11-03T06:13:18;12.90;99.90
28189;DHT22;15471;51.166;4.470;2022-11-03T06:15:47;12.90;99.90
28189;DHT22;15471;51.166;4.470;2022-11-03T06:18:27;12.90;99.90
28189;DHT22;15471;51.166;4.470;2022-11-03T06:20:58;13.00;99.90
28189;DHT22;15471;51.166;4.470;2022-11-03T06:23:27;13.00;99.90
28189;DHT22;15471;51.166;4.470;2022-11-03T06:25:55;13.00;99.90
28189;DHT22;15471;51.166;4.470;2022-11-03T06:28:25;13.00;99.90
28189;DHT22;15471;51.166;4.470;2022-11-03T06:30:55;13.10;99.90
28189;DHT22;15471;51.166;4.470;2022-11-03T06:33:27;13.10;99.90
28189;DHT22;15471;51.166;4.470;2022-11-03T06:36:23;13.10;99.90
28189;DHT22;15471;51.166;4.470;2022-11-03T06:38:54;13.10;99.90
28189;DHT22;15471;51.166;4.470;2022-11-03T06:41:24;13.20;99.90
28189;DHT22;15471;51.166;4.470;2022-11-03T06:43:51;13.10;99.90
28189;DHT22;15471;51.166;4.470;2022-11-03T06:46:22;13.10;99.90
28189;DHT22;15471;51.166;4.470;2022-11-03T06:48:49;13.10;99.90
28189;DHT22;15471;51.166;4.470;2022-11-03T06:51:22;13.20;99.90
28189;DHT22;15471;51.166;4.470;2022-11-03T06:53:49;13.30;99.90
28189;DHT22;15471;51.166;4.470;2022-11-03T06:56:20;13.20;99.90
28189;DHT22;15471;51.166;4.470;2022-11-03T06:58:47;13.20;99.90
28189;DHT22;15471;51.166;4.470;2022-11-03T07:01:17;13.20;99.90
28189;DHT22;15471;51.166;4.470;2022-11-03T07:03:45;13.20;99.90
28189;DHT22;15471;51.166;4.470;2022-11-03T07:06:23;13.10;99.90
28189;DHT22;15471;51.166;4.470;2022-11-03T07:08:52;13.10;99.90
28189;DHT22;15471;51.166;4.470;2022-11-03T07:11:27;13.10;99.90
28189;DHT22;15471;51.166;4.470;2022-11-03T07:14:03;13.10;99.90
28189;DHT22;15471;51.166;4.470;2022-11-03T07:16:41;13.10;99.90
28189;DHT22;15471;51.166;4.470;2022-11-03T07:19:33;13.10;99.90
28189;DHT22;15471;51.166;4.470;2022-11-03T07:22:13;13.20;99.90
28189;DHT22;15471;51.166;4.470;2022-11-03T07:24:44;13.10;99.90
28189;DHT22;15471;51.166;4.470;2022-11-03T07:27:28;13.10;99.90
28189;DHT22;15471;51.166;4.470;2022-11-03T07:30:29;13.10;99.90
28189;DHT22;15471;51.166;4.470;2022-11-03T07:33:00;13.10;99.90
28189;DHT22;15471;51.166;4.470;2022-11-03T07:35:33;13.20;99.90
28189;DHT22;15471;51.166;4.470;2022-11-03T07:38:07;13.20;99.90
28189;DHT22;15471;51.166;4.470;2022-11-03T07:40:34;13.20;99.90
28189;DHT22;15471;51.166;4.470;2022-11-03T07:43:27;13.30;99.90
28189;DHT22;15471;51.166;4.470;2022-11-03T07:45:58;13.30;99.90
28189;DHT22;15471;51.166;4.470;2022-11-03T07:51:26;13.30;99.90
28189;DHT22;15471;51.166;4.470;2022-11-03T07:59:40;13.30;99.90
28189;DHT22;15471;51.166;4.470;2022-11-03T08:05:10;13.40;99.90
28189;DHT22;15471;51.166;4.470;2022-11-03T08:07:36;13.40;99.90
28189;DHT22;15471;51.166;4.470;2022-11-03T08:10:02;13.40;99.90
28189;DHT22;15471;51.166;4.470;2022-11-03T08:12:28;13.40;99.90
28189;DHT22;15471;51.166;4.470;2022-11-03T08:14:54;13.40;99.90
28189;DHT22;15471;51.166;4.470;2022-11-03T08:17:20;13.40;99.90
28189;DHT22;15471;51.166;4.470;2022-11-03T08:20:20;13.40;99.90
28189;DHT22;15471;51.166;4.470;2022-11-03T08:22:46;13.40;99.90
28189;DHT22;15471;51.166;4.470;2022-11-03T08:25:12;13.40;99.90
28189;DHT22;15471;51.166;4.470;2022-11-03T08:27:38;13.40;99.90
28189;DHT22;15471;51.166;4.470;2022-11-03T08:30:05;13.40;99.90
28189;DHT22;15471;51.166;4.470;2022-11-03T08:32:31;13.40;99.90
28189;DHT22;15471;51.166;4.470;2022-11-03T08:34:57;13.50;99.90
28189;DHT22;15471;51.166;4.470;2022-11-03T08:37:23;13.40;99.90
28189;DHT22;15471;51.166;4.470;2022-11-03T08:39:49;13.50;99.90
28189;DHT22;15471;51.166;4.470;2022-11-03T08:42:15;13.50;99.90
28189;DHT22;15471;51.166;4.470;2022-11-03T08:44:41;13.50;99.90
28189;DHT22;15471;51.166;4.470;2022-11-03T08:47:07;13.50;99.90
28189;DHT22;15471;51.166;4.470;2022-11-03T08:49:36;13.60;99.90
28189;DHT22;15471;51.166;4.470;2022-11-03T08:52:02;13.50;99.90
28189;DHT22;15471;51.166;4.470;2022-11-03T08:54:29;13.50;99.90
28189;DHT22;15471;51.166;4.470;2022-11-03T08:56:55;13.50;99.90
28189;DHT22;15471;51.166;4.470;2022-11-03T08:59:21;13.50;99.90
28189;DHT22;15471;51.166;4.470;2022-11-03T09:01:47;13.50;99.90
28189;DHT22;15471;51.166;4.470;2022-11-03T09:04:13;13.50;99.90
28189;DHT22;15471;51.166;4.470;2022-11-03T09:06:40;13.50;99.90
28189;DHT22;15471;51.166;4.470;2022-11-03T09:09:06;13.50;99.90
28189;DHT22;15471;51.166;4.470;2022-11-03T09:11:35;13.50;99.90
28189;DHT22;15471;51.166;4.470;2022-11-03T09:14:02;13.60;99.90
28189;DHT22;15471;51.166;4.470;2022-11-03T09:16:30;13.60;99.90
28189;DHT22;15471;51.166;4.470;2022-11-03T09:19:02;13.50;99.90
28189;DHT22;15471;51.166;4.470;2022-11-03T09:21:28;13.50;99.90
28189;DHT22;15471;51.166;4.470;2022-11-03T09:23:55;13.50;99.90
28189;DHT22;15471;51.166;4.470;2022-11-03T09:26:25;13.60;99.90
28189;DHT22;15471;51.166;4.470;2022-11-03T09:28:54;13.50;99.90
28189;DHT22;15471;51.166;4.470;2022-11-03T09:31:31;13.60;99.90
28189;DHT22;15471;51.166;4.470;2022-11-03T09:33:57;13.60;99.90
28189;DHT22;15471;51.166;4.470;2022-11-03T09:42:48;13.60;99.90
28189;DHT22;15471;51.166;4.470;2022-11-03T09:45:14;13.70;99.90
28189;DHT22;15471;51.166;4.470;2022-11-03T09:47:44;13.80;99.90
28189;DHT22;15471;51.166;4.470;2022-11-03T09:50:16;13.80;99.90
28189;DHT22;15471;51.166;4.470;2022-11-03T09:52:42;13.90;99.90
28189;DHT22;15471;51.166;4.470;2022-11-03T09:55:13;14.00;99.90
28189;DHT22;15471;51.166;4.470;2022-11-03T09:57:40;14.00;99.90
28189;DHT22;15471;51.166;4.470;2022-11-03T10:00:18;14.20;99.90
28189;DHT22;15471;51.166;4.470;2022-11-03T10:02:45;14.30;99.90
28189;DHT22;15471;51.166;4.470;2022-11-03T10:05:20;14.50;99.90
28189;DHT22;15471;51.166;4.470;2022-11-03T10:07:47;14.70;99.90
28189;DHT22;15471;51.166;4.470;2022-11-03T10:10:19;14.70;99.90
28189;DHT22;15471;51.166;4.470;2022-11-03T10:12:45;14.70;99.90
28189;DHT22;15471;51.166;4.470;2022-11-03T10:15:16;14.90;99.90
28189;DHT22;15471;51.166;4.470;2022-11-03T10:17:44;14.90;99.90
28189;DHT22;15471;51.166;4.470;2022-11-03T10:20:12;14.90;99.90
28189;DHT22;15471;51.166;4.470;2022-11-03T10:22:39;14.90;99.90
28189;DHT22;15471;51.166;4.470;2022-11-03T10:25:35;14.90;99.90
28189;DHT22;15471;51.166;4.470;2022-11-03T10:30:54;15.10;99.90
28189;DHT22;15471;51.166;4.470;2022-11-03T10:33:34;15.20;99.90
28189;DHT22;15471;51.166;4.470;2022-11-03T10:36:03;15.30;99.90
28189;DHT22;15471;51.166;4.470;2022-11-03T10:38:34;15.30;99.90
28189;DHT22;15471;51.166;4.470;2022-11-03T10:41:18;15.30;99.90
28189;DHT22;15471;51.166;4.470;2022-11-03T10:46:36;15.60;99.90
28189;DHT22;15471;51.166;4.470;2022-11-03T10:49:12;15.60;99.90
28189;DHT22;15471;51.166;4.470;2022-11-03T10:51:40;15.60;99.90
28189;DHT22;15471;51.166;4.470;2022-11-03T10:54:13;15.70;99.90
28189;DHT22;15471;51.166;4.470;2022-11-03T10:56:41;15.70;99.90
28189;DHT22;15471;51.166;4.470;2022-11-03T10:59:31;15.70;99.90
28189;DHT22;15471;51.166;4.470;2022-11-03T11:01:58;15.80;99.90
28189;DHT22;15471;51.166;4.470;2022-11-03T11:04:25;15.80;99.90
28189;DHT22;15471;51.166;4.470;2022-11-03T11:06:51;15.60;99.90
28189;DHT22;15471;51.166;4.470;2022-11-03T11:09:22;15.60;99.90
28189;DHT22;15471;51.166;4.470;2022-11-03T11:12:23;15.60;99.90
28189;DHT22;15471;51.166;4.470;2022-11-03T11:14:55;15.70;99.90
28189;DHT22;15471;51.166;4.470;2022-11-03T11:17:44;15.80;99.90
28189;DHT22;15471;51.166;4.470;2022-11-03T11:22:49;16.00;99.90
28189;DHT22;15471;51.166;4.470;2022-11-03T11:25:17;16.10;99.90
28189;DHT22;15471;51.166;4.470;2022-11-03T11:37:47;16.30;99.90
28189;DHT22;15471;51.166;4.470;2022-11-03T11:48:35;16.30;99.90
28189;DHT22;15471;51.166;4.470;2022-11-03T11:51:02;16.20;99.90
28189;DHT22;15471;51.166;4.470;2022-11-03T11:53:37;16.40;99.90
28189;DHT22;15471;51.166;4.470;2022-11-03T11:56:03;16.40;99.90
28189;DHT22;15471;51.166;4.470;2022-11-03T11:58:47;16.40;99.90
28189;DHT22;15471;51.166;4.470;2022-11-03T12:01:23;16.50;99.90
28189;DHT22;15471;51.166;4.470;2022-11-03T12:03:57;16.60;99.90
28189;DHT22;15471;51.166;4.470;2022-11-03T12:06:39;16.60;99.90
28189;DHT22;15471;51.166;4.470;2022-11-03T12:09:17;16.50;99.90
28189;DHT22;15471;51.166;4.470;2022-11-03T12:11:51;16.60;99.90
28189;DHT22;15471;51.166;4.470;2022-11-03T12:16:54;16.50;99.90
28189;DHT22;15471;51.166;4.470;2022-11-03T12:19:40;16.50;99.90
28189;DHT22;15471;51.166;4.470;2022-11-03T12:22:09;16.60;99.90
28189;DHT22;15471;51.166;4.470;2022-11-03T12:24:49;16.60;99.90
28189;DHT22;15471;51.166;4.470;2022-11-03T12:27:18;16.70;99.90
28189;DHT22;15471;51.166;4.470;2022-11-03T12:29:45;16.60;99.90
28189;DHT22;15471;51.166;4.470;2022-11-03T12:32:11;16.80;99.90
28189;DHT22;15471;51.166;4.470;2022-11-03T12:34:37;16.80;99.90
28189;DHT22;15471;51.166;4.470;2022-11-03T12:37:03;16.80;99.90
28189;DHT22;15471;51.166;4.470;2022-11-03T12:39:29;16.90;99.90
28189;DHT22;15471;51.166;4.470;2022-11-03T12:41:55;16.90;99.90
28189;DHT22;15471;51.166;4.470;2022-11-03T12:44:21;17.00;99.90
28189;DHT22;15471;51.166;4.470;2022-11-03T12:46:47;17.00;99.90
28189;DHT22;15471;51.166;4.470;2022-11-03T12:49:13;17.10;99.90
28189;DHT22;15471;51.166;4.470;2022-11-03T12:51:40;17.10;99.90
28189;DHT22;15471;51.166;4.470;2022-11-03T12:54:11;17.10;99.90
28189;DHT22;15471;51.166;4.470;2022-11-03T12:56:38;17.10;99.90
28189;DHT22;15471;51.166;4.470;2022-11-03T12:59:04;17.10;99.90
28189;DHT22;15471;51.166;4.470;2022-11-03T13:01:30;17.10;99.90
28189;DHT22;15471;51.166;4.470;2022-11-03T13:04:00;17.00;99.90
28189;DHT22;15471;51.166;4.470;2022-11-03T13:06:26;16.90;99.90
28189;DHT22;15471;51.166;4.470;2022-11-03T13:08:52;16.70;99.90
28189;DHT22;15471;51.166;4.470;2022-11-03T13:11:19;16.50;99.90
28189;DHT22;15471;51.166;4.470;2022-11-03T13:14:03;16.30;99.90
28189;DHT22;15471;51.166;4.470;2022-11-03T13:16:30;16.30;99.90
28189;DHT22;15471;51.166;4.470;2022-11-03T13:18:56;16.30;99.90
28189;DHT22;15471;51.166;4.470;2022-11-03T13:21:22;16.20;99.90
28189;DHT22;15471;51.166;4.470;2022-11-03T13:23:49;16.20;99.90
28189;DHT22;15471;51.166;4.470;2022-11-03T13:26:16;16.10;99.90
28189;DHT22;15471;51.166;4.470;2022-11-03T13:28:45;16.00;99.90
28189;DHT22;15471;51.166;4.470;2022-11-03T13:31:19;16.00;99.90
28189;DHT22;15471;51.166;4.470;2022-11-03T13:33:48;15.90;99.90
28189;DHT22;15471;51.166;4.470;2022-11-03T13:36:22;15.80;99.90
28189;DHT22;15471;51.166;4.470;2022-11-03T13:38:48;15.70;99.90
28189;DHT22;15471;51.166;4.470;2022-11-03T13:41:14;15.70;99.90
28189;DHT22;15471;51.166;4.470;2022-11-03T13:43:40;15.50;99.90
28189;DHT22;15471;51.166;4.470;2022-11-03T13:46:08;15.50;99.90
28189;DHT22;15471;51.166;4.470;2022-11-03T13:48:35;15.50;99.90
28189;DHT22;15471;51.166;4.470;2022-11-03T13:51:04;15.50;99.90
28189;DHT22;15471;51.166;4.470;2022-11-03T13:53:31;15.50;99.90
28189;DHT22;15471;51.166;4.470;2022-11-03T13:55:57;15.40;99.90
28189;DHT22;15471;51.166;4.470;2022-11-03T13:58:24;15.40;99.90
28189;DHT22;15471;51.166;4.470;2022-11-03T14:00:50;15.40;99.90
28189;DHT22;15471;51.166;4.470;2022-11-03T14:03:16;15.40;99.90
28189;DHT22;15471;51.166;4.470;2022-11-03T14:05:43;15.50;99.90
28189;DHT22;15471;51.166;4.470;2022-11-03T14:08:09;15.40;99.90
28189;DHT22;15471;51.166;4.470;2022-11-03T14:10:35;15.40;99.90
28189;DHT22;15471;51.166;4.470;2022-11-03T14:13:01;15.40;99.90
28189;DHT22;15471;51.166;4.470;2022-11-03T14:15:27;15.30;99.90
28189;DHT22;15471;51.166;4.470;2022-11-03T14:17:53;15.30;99.90
28189;DHT22;15471;51.166;4.470;2022-11-03T14:20:19;15.20;99.90
28189;DHT22;15471;51.166;4.470;2022-11-03T14:22:45;15.20;99.90
28189;DHT22;15471;51.166;4.470;2022-11-03T14:25:11;15.20;99.90
28189;DHT22;15471;51.166;4.470;2022-11-03T14:27:37;15.00;99.90
28189;DHT22;15471;51.166;4.470;2022-11-03T14:30:04;15.00;99.90
28189;DHT22;15471;51.166;4.470;2022-11-03T14:32:30;14.90;99.90
28189;DHT22;15471;51.166;4.470;2022-11-03T14:34:57;14.80;99.90
28189;DHT22;15471;51.166;4.470;2022-11-03T14:37:23;14.90;99.90
28189;DHT22;15471;51.166;4.470;2022-11-03T14:39:50;14.90;99.90
28189;DHT22;15471;51.166;4.470;2022-11-03T14:42:16;14.80;99.90
28189;DHT22;15471;51.166;4.470;2022-11-03T14:44:44;14.70;99.90
28189;DHT22;15471;51.166;4.470;2022-11-03T14:47:15;14.70;99.90
28189;DHT22;15471;51.166;4.470;2022-11-03T14:49:48;14.70;99.90
28189;DHT22;15471;51.166;4.470;2022-11-03T14:52:15;14.60;99.90
28189;DHT22;15471;51.166;4.470;2022-11-03T14:54:41;14.60;99.90
28189;DHT22;15471;51.166;4.470;2022-11-03T14:57:08;14.60;99.90
28189;DHT22;15471;51.166;4.470;2022-11-03T14:59:35;14.60;99.90
28189;DHT22;15471;51.166;4.470;2022-11-03T15:02:01;14.50;99.90
28189;DHT22;15471;51.166;4.470;2022-11-03T15:04:28;14.50;99.90
28189;DHT22;15471;51.166;4.470;2022-11-03T15:06:54;14.50;99.90
28189;DHT22;15471;51.166;4.470;2022-11-03T15:09:21;14.50;99.90
28189;DHT22;15471;51.166;4.470;2022-11-03T15:11:47;14.40;99.90
28189;DHT22;15471;51.166;4.470;2022-11-03T15:14:13;14.40;99.90
28189;DHT22;15471;51.166;4.470;2022-11-03T15:16:40;14.40;99.90
28189;DHT22;15471;51.166;4.470;2022-11-03T15:19:07;14.30;99.90
28189;DHT22;15471;51.166;4.470;2022-11-03T15:21:36;14.30;99.90
28189;DHT22;15471;51.166;4.470;2022-11-03T15:24:02;14.30;99.90
28189;DHT22;15471;51.166;4.470;2022-11-03T15:26:29;14.10;99.90
28189;DHT22;15471;51.166;4.470;2022-11-03T15:28:55;14.00;99.90
28189;DHT22;15471;51.166;4.470;2022-11-03T15:31:23;13.90;99.90
28189;DHT22;15471;51.166;4.470;2022-11-03T15:33:50;13.80;99.90
28189;DHT22;15471;51.166;4.470;2022-11-03T15:36:17;13.70;99.90
28189;DHT22;15471;51.166;4.470;2022-11-03T15:38:44;13.70;99.90
28189;DHT22;15471;51.166;4.470;2022-11-03T15:41:10;13.70;99.90
28189;DHT22;15471;51.166;4.470;2022-11-03T15:43:47;13.60;99.90
28189;DHT22;15471;51.166;4.470;2022-11-03T15:46:15;13.50;99.90
28189;DHT22;15471;51.166;4.470;2022-11-03T15:48:43;13.30;99.90
28189;DHT22;15471;51.166;4.470;2022-11-03T15:51:11;13.20;99.90
28189;DHT22;15471;51.166;4.470;2022-11-03T15:53:38;13.10;99.90
28189;DHT22;15471;51.166;4.470;2022-11-03T15:56:05;13.00;99.90
28189;DHT22;15471;51.166;4.470;2022-11-03T15:58:32;13.00;99.90
28189;DHT22;15471;51.166;4.470;2022-11-03T16:01:03;12.90;99.90
28189;DHT22;15471;51.166;4.470;2022-11-03T16:04:37;12.80;99.90
28189;DHT22;15471;51.166;4.470;2022-11-03T16:07:45;12.70;99.90
28189;DHT22;15471;51.166;4.470;2022-11-03T16:10:41;12.60;99.90
28189;DHT22;15471;51.166;4.470;2022-11-03T16:13:21;12.60;99.90
28189;DHT22;15471;51.166;4.470;2022-11-03T16:16:22;12.60;99.90
28189;DHT22;15471;51.166;4.470;2022-11-03T16:18:56;12.50;99.90
28189;DHT22;15471;51.166;4.470;2022-11-03T16:21:23;12.50;99.90
28189;DHT22;15471;51.166;4.470;2022-11-03T16:23:49;12.50;99.90
28189;DHT22;15471;51.166;4.470;2022-11-03T16:26:15;12.50;99.90
28189;DHT22;15471;51.166;4.470;2022-11-03T16:31:46;12.50;99.90
28189;DHT22;15471;51.166;4.470;2022-11-03T16:34:17;12.50;99.90
28189;DHT22;15471;51.166;4.470;2022-11-03T16:36:47;12.40;99.90
28189;DHT22;15471;51.166;4.470;2022-11-03T16:39:13;12.50;99.90
28189;DHT22;15471;51.166;4.470;2022-11-03T16:41:40;12.50;99.90
28189;DHT22;15471;51.166;4.470;2022-11-03T16:44:06;12.50;99.90
28189;DHT22;15471;51.166;4.470;2022-11-03T16:46:32;12.40;99.90
28189;DHT22;15471;51.166;4.470;2022-11-03T16:48:58;12.40;99.90
28189;DHT22;15471;51.166;4.470;2022-11-03T16:51:25;12.40;99.90
28189;DHT22;15471;51.166;4.470;2022-11-03T16:53:52;12.30;99.90
28189;DHT22;15471;51.166;4.470;2022-11-03T16:56:19;12.30;99.90
28189;DHT22;15471;51.166;4.470;2022-11-03T16:58:46;12.30;99.90
28189;DHT22;15471;51.166;4.470;2022-11-03T17:01:12;12.30;99.90
28189;DHT22;15471;51.166;4.470;2022-11-03T17:03:38;12.30;99.90
28189;DHT22;15471;51.166;4.470;2022-11-03T17:06:05;12.30;99.90
28189;DHT22;15471;51.166;4.470;2022-11-03T17:08:31;12.30;99.90
28189;DHT22;15471;51.166;4.470;2022-11-03T17:10:57;12.40;99.90
28189;DHT22;15471;51.166;4.470;2022-11-03T17:13:25;12.30;99.90
28189;DHT22;15471;51.166;4.470;2022-11-03T17:15:51;12.30;99.90
28189;DHT22;15471;51.166;4.470;2022-11-03T17:18:19;12.30;99.90
28189;DHT22;15471;51.166;4.470;2022-11-03T17:20:46;12.30;99.90